createdAt,value
2018-09-27T00:01:22.107Z,97136.98
2018-09-27T00:03:52.117Z,97129.61
2018-09-27T00:06:21.977Z,97137.62
2018-09-27T00:08:51.758Z,97138.67
2018-09-27T00:11:21.667Z,97134.42
2018-09-27T00:13:51.790Z,97139.36
2018-09-27T00:16:21.671Z,97129.30
2018-09-27T00:18:51.551Z,97129.98
2018-09-27T00:21:21.637Z,97119.91
2018-09-27T00:23:51.425Z,97117.03
2018-09-27T00:26:21.353Z,97117.28
2018-09-27T00:28:51.271Z,97122.98
2018-09-27T00:31:20.874Z,97119.03
2018-09-27T00:33:50.976Z,97126.69
2018-09-27T00:36:20.524Z,97114.62
2018-09-27T00:38:50.205Z,97123.05
2018-09-27T00:41:19.938Z,97122.30
2018-09-27T00:43:49.922Z,97120.48
2018-09-27T00:46:19.454Z,97118.17
2018-09-27T00:48:49.446Z,97118.40
2018-09-27T00:51:19.467Z,97114.07
2018-09-27T00:53:49.368Z,97119.14
2018-09-27T00:56:19.026Z,97109.72
2018-09-27T00:58:48.701Z,97110.75
2018-09-27T01:01:18.870Z,97113.19
2018-09-27T01:03:48.902Z,97109.86
2018-09-27T01:06:19.005Z,97107.45
2018-09-27T01:08:48.579Z,97105.33
2018-09-27T01:11:18.141Z,97102.98
2018-09-27T01:13:47.831Z,97103.16
2018-09-27T01:16:17.231Z,97105.06
2018-09-27T01:18:47.096Z,97096.30
2018-09-27T01:21:16.784Z,97095.60
2018-09-27T01:23:46.209Z,97096.30
2018-09-27T01:26:15.540Z,97085.92
2018-09-27T01:28:45.373Z,97093.21
2018-09-27T01:31:14.789Z,97095.55
2018-09-27T01:33:44.336Z,97094.64
2018-09-27T01:36:13.879Z,97095.06
2018-09-27T01:38:43.417Z,97095.84
2018-09-27T01:41:12.771Z,97095.66
2018-09-27T01:43:42.236Z,97098.92
2018-09-27T01:46:11.615Z,97099.52
2018-09-27T01:48:41.058Z,97099.80
2018-09-27T01:51:10.357Z,97097.22
2018-09-27T01:53:39.796Z,97101.55
2018-09-27T01:56:09.138Z,97099.23
2018-09-27T01:58:38.483Z,97100.98
2018-09-27T02:01:08.853Z,97105.51
2018-09-27T02:03:38.179Z,97101.86
2018-09-27T02:06:07.588Z,97097.16
2018-09-27T02:08:36.905Z,97099.03
2018-09-27T02:11:06.337Z,97103.64
2018-09-27T02:13:35.738Z,97104.70
2018-09-27T02:16:05.092Z,97105.75
2018-09-27T02:18:34.404Z,97101.23
2018-09-27T02:21:03.701Z,97106.42
2018-09-27T02:23:33.048Z,97107.84
2018-09-27T02:26:02.344Z,97107.38
2018-09-27T02:28:31.673Z,97106.03
2018-09-27T02:31:01.219Z,97103.08
2018-09-27T02:33:30.550Z,97107.38
2018-09-27T02:35:59.941Z,97100.19
2018-09-27T02:38:29.219Z,97098.02
2018-09-27T02:40:58.730Z,97093.41
2018-09-27T02:43:28.078Z,97092.80
2018-09-27T02:45:57.491Z,97097.89
2018-09-27T02:48:26.836Z,97095.73
2018-09-27T02:50:56.322Z,97088.10
2018-09-27T02:53:25.724Z,97086.06
2018-09-27T02:55:55.210Z,97077.89
2018-09-27T02:58:24.590Z,97081.09
2018-09-27T03:00:54.097Z,97074.30
2018-09-27T03:03:23.665Z,97076.66
2018-09-27T03:05:53.223Z,97078.62
2018-09-27T03:08:22.833Z,97085.39
2018-09-27T03:10:52.345Z,97088.70
2018-09-27T03:13:21.876Z,97085.52
2018-09-27T03:15:51.921Z,97088.52
2018-09-27T03:18:21.872Z,97089.95
2018-09-27T03:20:51.515Z,97081.51
2018-09-27T03:23:21.054Z,97077.89
2018-09-27T03:25:50.629Z,97070.64
2018-09-27T03:28:20.052Z,97067.37
2018-09-27T03:30:50.019Z,97066.13
2018-09-27T03:33:19.619Z,97072.58
2018-09-27T03:35:49.076Z,97067.47
2018-09-27T03:38:18.707Z,97066.13
2018-09-27T03:40:48.258Z,97059.23
2018-09-27T03:43:17.658Z,97066.26
2018-09-27T03:45:47.163Z,97051.89
2018-09-27T03:48:17.106Z,97059.61
2018-09-27T03:50:46.668Z,97063.20
2018-09-27T03:53:17.255Z,97061.02
2018-09-27T03:55:46.715Z,97061.14
2018-09-27T03:58:16.107Z,97059.80
2018-09-27T04:00:46.067Z,97062.81
2018-09-27T04:03:15.854Z,97059.86
2018-09-27T04:05:45.719Z,97063.14
2018-09-27T04:08:15.446Z,97062.12
2018-09-27T04:10:45.335Z,97060.88
2018-09-27T04:13:15.083Z,97057.95
2018-09-27T04:15:44.819Z,97057.25
2018-09-27T04:18:14.636Z,97053.75
2018-09-27T04:20:50.105Z,97048.44
2018-09-27T04:23:20.915Z,97045.48
2018-09-27T04:25:51.176Z,97045.04
2018-09-27T04:28:21.406Z,97046.08
2018-09-27T04:30:51.146Z,97038.34
2018-09-27T04:33:20.577Z,97036.97
2018-09-27T04:35:50.074Z,97036.84
2018-09-27T04:38:19.555Z,97034.75
2018-09-27T04:40:49.137Z,97035.36
2018-09-27T04:43:19.240Z,97036.47
2018-09-27T04:45:48.977Z,97035.36
2018-09-27T04:48:18.691Z,97036.13
2018-09-27T04:50:48.809Z,97035.64
2018-09-27T04:53:18.677Z,97034.50
2018-09-27T04:55:48.926Z,97031.80
2018-09-27T04:58:18.609Z,97031.29
2018-09-27T05:00:48.682Z,97039.33
2018-09-27T05:03:18.249Z,97037.52
2018-09-27T05:05:47.887Z,97038.95
2018-09-27T05:08:17.505Z,97044.16
2018-09-27T05:10:47.569Z,97041.72
2018-09-27T05:13:17.143Z,97044.32
2018-09-27T05:15:46.993Z,97043.72
2018-09-27T05:18:16.940Z,97045.72
2018-09-27T05:20:46.979Z,97038.91
2018-09-27T05:23:17.103Z,97039.42
2018-09-27T05:25:47.043Z,97042.89
2018-09-27T05:28:17.037Z,97037.05
2018-09-27T05:30:46.949Z,97032.75
2018-09-27T05:33:16.998Z,97035.61
2018-09-27T05:35:57.640Z,97039.11
2018-09-27T05:38:27.325Z,97045.30
2018-09-27T05:40:56.700Z,97040.81
2018-09-27T05:43:26.094Z,97036.13
2018-09-27T05:45:55.560Z,97031.23
2018-09-27T05:48:25.149Z,97021.75
2018-09-27T05:50:54.701Z,97028.30
2018-09-27T05:53:24.673Z,97029.51
2018-09-27T05:55:54.089Z,97030.11
2018-09-27T05:58:23.750Z,97028.64
2018-09-27T06:00:53.095Z,97020.45
2018-09-27T06:03:22.511Z,97022.53
2018-09-27T06:05:51.953Z,97020.43
2018-09-27T06:08:21.853Z,97019.50
2018-09-27T06:10:51.450Z,97019.05
2018-09-27T06:13:20.876Z,97027.94
2018-09-27T06:15:50.489Z,97025.88
2018-09-27T06:18:19.886Z,97022.64
2018-09-27T06:20:49.485Z,97031.92
2018-09-27T06:23:18.931Z,97036.37
2018-09-27T06:25:48.433Z,97027.16
2018-09-27T06:28:17.809Z,97032.37
2018-09-27T06:30:47.312Z,97030.01
2018-09-27T06:33:17.029Z,97033.00
2018-09-27T06:35:46.451Z,97028.25
2018-09-27T06:38:15.925Z,97017.48
2018-09-27T06:40:45.632Z,97014.39
2018-09-27T06:43:15.178Z,97012.77
2018-09-27T06:45:44.787Z,97015.26
2018-09-27T06:48:14.464Z,97009.84
2018-09-27T06:50:44.220Z,97005.16
2018-09-27T06:53:13.837Z,97002.19
2018-09-27T06:55:43.984Z,97002.94
2018-09-27T06:58:13.690Z,97001.66
2018-09-27T07:00:43.590Z,97004.41
2018-09-27T07:03:13.548Z,96999.56
2018-09-27T07:05:43.405Z,97005.08
2018-09-27T07:08:13.204Z,97004.37
2018-09-27T07:10:43.327Z,97014.00
2018-09-27T07:13:13.184Z,97009.35
2018-09-27T07:15:43.330Z,97013.27
2018-09-27T07:18:13.209Z,97016.33
2018-09-27T07:20:43.107Z,97016.48
2018-09-27T07:23:13.061Z,97013.13
2018-09-27T07:25:43.247Z,97011.27
2018-09-27T07:28:13.200Z,97012.70
2018-09-27T07:30:43.243Z,97012.94
2018-09-27T07:33:13.566Z,97023.08
2018-09-27T07:35:43.611Z,97010.45
2018-09-27T07:38:13.619Z,97012.83
2018-09-27T07:40:43.498Z,97012.56
2018-09-27T07:43:13.608Z,97014.61
2018-09-27T07:45:43.602Z,97024.08
2018-09-27T07:48:13.375Z,97015.00
2018-09-27T07:50:43.335Z,97015.31
2018-09-27T07:53:13.385Z,97014.69
2018-09-27T07:55:43.386Z,97012.87
2018-09-27T07:58:13.209Z,97017.56
2018-09-27T08:00:43.299Z,97017.36
2018-09-27T08:03:13.254Z,97019.63
2018-09-27T08:05:43.396Z,97013.67
2018-09-27T08:08:13.338Z,97012.62
2018-09-27T08:10:43.749Z,97005.89
2018-09-27T08:13:13.624Z,97000.17
2018-09-27T08:15:43.376Z,97004.48
2018-09-27T08:18:13.021Z,97012.87
2018-09-27T08:20:42.940Z,97010.40
2018-09-27T08:23:13.037Z,97005.75
2018-09-27T08:25:43.408Z,97002.97
2018-09-27T08:28:13.366Z,97008.35
2018-09-27T08:30:43.568Z,97005.80
2018-09-27T08:33:13.591Z,97009.33
2018-09-27T08:35:43.649Z,97014.63
2018-09-27T08:38:13.746Z,97010.86
2018-09-27T08:40:43.403Z,97009.58
2018-09-27T08:43:13.197Z,97004.59
2018-09-27T08:45:43.166Z,97003.85
2018-09-27T08:48:13.119Z,97005.27
2018-09-27T08:50:43.171Z,97003.02
2018-09-27T08:53:13.352Z,97000.60
2018-09-27T08:55:43.396Z,96999.31
2018-09-27T08:58:13.136Z,96994.50
2018-09-27T09:00:43.140Z,96998.52
2018-09-27T09:03:13.293Z,96998.13
2018-09-27T09:05:43.044Z,96987.09
2018-09-27T09:08:13.395Z,96987.75
2018-09-27T09:10:43.276Z,96988.59
2018-09-27T09:13:12.954Z,96983.03
2018-09-27T09:15:42.855Z,96982.02
2018-09-27T09:18:12.731Z,96975.17
2018-09-27T09:20:42.233Z,96971.84
2018-09-27T09:23:12.437Z,96967.11
2018-09-27T09:25:42.339Z,96961.91
2018-09-27T09:28:12.438Z,96958.80
2018-09-27T09:30:42.176Z,96954.33
2018-09-27T09:33:12.075Z,96948.89
2018-09-27T09:35:42.445Z,96948.77
2018-09-27T09:38:12.308Z,96949.73
2018-09-27T09:40:42.338Z,96935.02
2018-09-27T09:43:12.001Z,96934.97
2018-09-27T09:45:42.072Z,96927.34
2018-09-27T09:48:12.766Z,96927.18
2018-09-27T09:50:42.645Z,96917.59
2018-09-27T09:53:13.048Z,96927.89
2018-09-27T09:55:43.030Z,96922.73
2018-09-27T09:58:13.058Z,96923.70
2018-09-27T10:00:43.268Z,96913.51
2018-09-27T10:03:13.188Z,96912.30
2018-09-27T10:05:43.456Z,96903.89
2018-09-27T10:08:13.455Z,96900.27
2018-09-27T10:10:43.536Z,96902.27
2018-09-27T10:13:13.757Z,96897.75
2018-09-27T10:15:43.897Z,96893.80
2018-09-27T10:18:13.615Z,96889.97
2018-09-27T10:20:43.599Z,96887.56
2018-09-27T10:23:13.593Z,96883.47
2018-09-27T10:25:43.634Z,96882.44
2018-09-27T10:28:13.343Z,96885.33
2018-09-27T10:30:42.915Z,96875.22
2018-09-27T10:33:12.797Z,96874.16
2018-09-27T10:35:43.565Z,96870.05
2018-09-27T10:38:13.176Z,96865.84
2018-09-27T10:40:43.208Z,96870.06
2018-09-27T10:43:13.079Z,96853.69
2018-09-27T10:45:43.295Z,96858.91
2018-09-27T10:48:13.293Z,96857.70
2018-09-27T10:50:43.104Z,96854.34
2018-09-27T10:53:12.616Z,96852.08
2018-09-27T10:55:42.610Z,96848.08
2018-09-27T10:58:12.494Z,96843.98
2018-09-27T11:00:43.497Z,96846.41
2018-09-27T11:03:13.279Z,96844.36
2018-09-27T11:05:43.061Z,96840.90
2018-09-27T11:08:12.992Z,96838.84
2018-09-27T11:10:43.119Z,96843.42
2018-09-27T11:13:13.029Z,96837.47
2018-09-27T11:15:42.940Z,96830.69
2018-09-27T11:18:12.868Z,96832.76
2018-09-27T11:20:42.761Z,96825.51
2018-09-27T11:23:12.485Z,96831.34
2018-09-27T11:25:42.584Z,96826.70
2018-09-27T11:28:12.512Z,96818.72
2018-09-27T11:30:42.447Z,96810.03
2018-09-27T11:33:12.558Z,96810.03
2018-09-27T11:35:42.755Z,96807.34
2018-09-27T11:38:12.636Z,96799.09
2018-09-27T11:40:42.315Z,96801.18
2018-09-27T11:43:12.310Z,96790.67
2018-09-27T11:45:42.122Z,96785.08
2018-09-27T11:48:11.849Z,96785.47
2018-09-27T11:50:41.754Z,96775.09
2018-09-27T11:53:11.842Z,96772.04
2018-09-27T11:55:41.877Z,96775.14
2018-09-27T11:58:11.714Z,96768.52
2018-09-27T12:00:41.492Z,96760.25
2018-09-27T12:03:11.633Z,96757.20
2018-09-27T12:05:41.561Z,96761.45
2018-09-27T12:08:11.785Z,96757.03
2018-09-27T12:10:42.193Z,96743.88
2018-09-27T12:13:12.254Z,96741.87
2018-09-27T12:15:42.243Z,96744.38
2018-09-27T12:18:12.251Z,96736.84
2018-09-27T12:20:42.224Z,96736.22
2018-09-27T12:23:12.072Z,96739.87
2018-09-27T12:25:42.073Z,96733.75
2018-09-27T12:28:12.213Z,96725.09
2018-09-27T12:30:42.501Z,96721.42
2018-09-27T12:33:12.709Z,96719.47
2018-09-27T12:35:42.846Z,96715.20
2018-09-27T12:38:12.912Z,96712.82
2018-09-27T12:40:42.947Z,96706.45
2018-09-27T12:43:12.995Z,96706.28
2018-09-27T12:45:42.735Z,96703.55
2018-09-27T12:48:12.812Z,96700.66
2018-09-27T12:50:43.052Z,96698.92
2018-09-27T12:53:13.000Z,96695.48
2018-09-27T12:55:42.834Z,96678.34
2018-09-27T12:58:12.772Z,96683.70
2018-09-27T13:00:42.857Z,96683.45
2018-09-27T13:03:12.944Z,96679.85
2018-09-27T13:05:42.917Z,96676.31
2018-09-27T13:08:12.854Z,96665.77
2018-09-27T13:10:42.818Z,96665.04
2018-09-27T13:13:12.756Z,96664.61
2018-09-27T13:15:42.925Z,96656.89
2018-09-27T13:18:12.713Z,96643.77
2018-09-27T13:20:43.310Z,96652.14
2018-09-27T13:23:13.138Z,96643.15
2018-09-27T13:25:43.502Z,96631.33
2018-09-27T13:28:13.474Z,96632.14
2018-09-27T13:30:43.432Z,96629.23
2018-09-27T13:33:13.523Z,96621.53
2018-09-27T13:35:43.428Z,96615.31
2018-09-27T13:38:13.331Z,96608.56
2018-09-27T13:40:43.084Z,96608.08
2018-09-27T13:43:12.937Z,96602.04
2018-09-27T13:45:43.278Z,96597.12
2018-09-27T13:48:13.122Z,96593.51
2018-09-27T13:50:43.059Z,96592.84
2018-09-27T13:53:12.914Z,96590.62
2018-09-27T13:55:42.965Z,96585.39
2018-09-27T13:58:12.732Z,96585.59
2018-09-27T14:00:42.724Z,96585.17
2018-09-27T14:03:12.542Z,96573.66
2018-09-27T14:05:42.325Z,96584.06
2018-09-27T14:08:12.322Z,96575.62
2018-09-27T14:10:42.120Z,96573.51
2018-09-27T14:13:12.130Z,96573.51
2018-09-27T14:15:42.761Z,96565.55
2018-09-27T14:18:12.506Z,96561.03
2018-09-27T14:20:42.262Z,96567.80
2018-09-27T14:23:12.201Z,96555.50
2018-09-27T14:25:41.985Z,96552.51
2018-09-27T14:28:12.090Z,96553.95
2018-09-27T14:30:42.349Z,96540.66
2018-09-27T14:33:12.351Z,96539.49
2018-09-27T14:35:42.076Z,96539.70
2018-09-27T14:38:14.972Z,96526.91
2018-09-27T14:40:44.724Z,96534.55
2018-09-27T14:43:14.301Z,96523.50
2018-09-27T14:45:43.926Z,96530.75
2018-09-27T14:48:13.363Z,96520.84
2018-09-27T14:50:43.240Z,96524.75
2018-09-27T14:53:13.157Z,96517.59
2018-09-27T14:55:43.078Z,96521.38
2018-09-27T14:58:13.063Z,96519.33
2018-09-27T15:00:43.091Z,96511.69
2018-09-27T15:03:12.909Z,96512.30
2018-09-27T15:05:43.024Z,96511.23
2018-09-27T15:08:13.112Z,96507.88
2018-09-27T15:10:43.735Z,96507.52
2018-09-27T15:13:13.542Z,96504.66
2018-09-27T15:15:43.671Z,96503.79
2018-09-27T15:18:13.647Z,96499.98
2018-09-27T15:20:43.602Z,96499.41
2018-09-27T15:23:13.388Z,96495.36
2018-09-27T15:25:43.405Z,96489.33
2018-09-27T15:28:13.482Z,96488.42
2018-09-27T15:30:43.264Z,96483.86
2018-09-27T15:33:13.257Z,96486.20
2018-09-27T15:35:42.997Z,96486.72
2018-09-27T15:38:13.361Z,96487.38
2018-09-27T15:40:43.090Z,96490.25
2018-09-27T15:43:13.505Z,96485.36
2018-09-27T15:45:43.343Z,96482.78
2018-09-27T15:48:13.104Z,96476.17
2018-09-27T15:50:43.265Z,96476.78
2018-09-27T15:53:13.263Z,96471.73
2018-09-27T15:55:43.167Z,96479.98
2018-09-27T15:58:13.101Z,96474.95
2018-09-27T16:00:43.074Z,96471.05
2018-09-27T16:03:13.144Z,96465.44
2018-09-27T16:05:42.811Z,96463.03
2018-09-27T16:08:12.732Z,96458.63
2018-09-27T16:10:42.648Z,96460.20
2018-09-27T16:13:12.588Z,96459.75
2018-09-27T16:15:42.912Z,96461.87
2018-09-27T16:18:12.950Z,96453.00
2018-09-27T16:20:42.948Z,96452.62
2018-09-27T16:23:13.060Z,96443.70
2018-09-27T16:25:43.136Z,96445.45
2018-09-27T16:28:13.229Z,96444.70
2018-09-27T16:30:43.390Z,96442.86
2018-09-27T16:33:13.467Z,96446.50
2018-09-27T16:35:43.571Z,96437.11
2018-09-27T16:38:13.582Z,96443.41
2018-09-27T16:40:43.408Z,96435.42
2018-09-27T16:43:13.224Z,96433.60
2018-09-27T16:45:43.427Z,96430.89
2018-09-27T16:48:13.129Z,96426.14
2018-09-27T16:50:42.968Z,96428.88
2018-09-27T16:53:13.073Z,96428.74
2018-09-27T16:55:42.741Z,96423.72
2018-09-27T16:58:12.541Z,96422.67
2018-09-27T17:00:42.435Z,96418.70
2018-09-27T17:03:12.298Z,96415.80
2018-09-27T17:05:42.160Z,96409.12
2018-09-27T17:08:12.302Z,96408.34
2018-09-27T17:10:42.257Z,96408.70
2018-09-27T17:13:12.279Z,96401.14
2018-09-27T17:15:42.504Z,96407.94
2018-09-27T17:18:12.440Z,96410.16
2018-09-27T17:20:42.820Z,96408.55
2018-09-27T17:23:12.829Z,96407.26
2018-09-27T17:25:42.737Z,96401.86
2018-09-27T17:28:12.636Z,96401.63
2018-09-27T17:30:42.794Z,96394.08
2018-09-27T17:33:12.993Z,96390.31
2018-09-27T17:35:42.932Z,96392.26
2018-09-27T17:38:12.734Z,96389.34
2018-09-27T17:40:43.031Z,96383.92
2018-09-27T17:43:13.221Z,96386.67
2018-09-27T17:45:42.977Z,96383.98
2018-09-27T17:48:13.012Z,96382.41
2018-09-27T17:50:43.097Z,96381.63
2018-09-27T17:53:12.979Z,96381.35
2018-09-27T17:55:43.072Z,96382.98
2018-09-27T17:58:12.959Z,96377.10
2018-09-27T18:00:42.862Z,96385.21
2018-09-27T18:03:12.901Z,96386.03
2018-09-27T18:05:43.439Z,96378.22
2018-09-27T18:08:13.213Z,96379.59
2018-09-27T18:10:43.315Z,96380.97
2018-09-27T18:13:13.146Z,96382.04
2018-09-27T18:15:43.226Z,96381.80
2018-09-27T18:18:12.700Z,96379.41
2018-09-27T18:20:42.409Z,96383.18
2018-09-27T18:23:12.368Z,96385.88
2018-09-27T18:25:42.422Z,96389.39
2018-09-27T18:28:12.562Z,96386.41
2018-09-27T18:30:42.160Z,96388.06
2018-09-27T18:33:12.195Z,96385.08
2018-09-27T18:35:41.974Z,96392.38
2018-09-27T18:38:12.004Z,96384.56
2018-09-27T18:40:41.632Z,96389.16
2018-09-27T18:43:11.624Z,96376.73
2018-09-27T18:45:41.574Z,96379.71
2018-09-27T18:48:11.450Z,96374.84
2018-09-27T18:50:41.524Z,96372.41
2018-09-27T18:53:11.699Z,96372.44
2018-09-27T18:55:42.198Z,96371.88
2018-09-27T18:58:12.171Z,96373.50
2018-09-27T19:00:41.961Z,96370.52
2018-09-27T19:03:12.163Z,96368.38
2018-09-27T19:05:42.591Z,96364.61
2018-09-27T19:08:12.621Z,96366.48
2018-09-27T19:10:42.678Z,96361.90
2018-09-27T19:13:12.653Z,96360.01
2018-09-27T19:15:42.575Z,96364.34
2018-09-27T19:18:12.627Z,96365.67
2018-09-27T19:20:42.661Z,96360.00
2018-09-27T19:23:12.620Z,96360.55
2018-09-27T19:25:42.568Z,96361.37
2018-09-27T19:28:12.572Z,96360.54
2018-09-27T19:30:42.578Z,96363.50
2018-09-27T19:33:12.626Z,96367.55
2018-09-27T19:35:42.309Z,96363.20
2018-09-27T19:38:12.302Z,96362.91
2018-09-27T19:40:42.203Z,96359.11
2018-09-27T19:43:12.567Z,96355.08
2018-09-27T19:45:42.476Z,96355.36
2018-09-27T19:48:12.734Z,96356.41
2018-09-27T19:50:42.720Z,96352.60
2018-09-27T19:53:12.658Z,96353.15
2018-09-27T19:55:42.803Z,96347.20
2018-09-27T19:58:12.952Z,96348.78
2018-09-27T20:00:43.020Z,96359.27
2018-09-27T20:03:13.156Z,96352.27
2018-09-27T20:05:42.820Z,96345.53
2018-09-27T20:08:13.035Z,96344.72
2018-09-27T20:10:43.144Z,96343.36
2018-09-27T20:13:13.263Z,96342.81
2018-09-27T20:15:43.060Z,96339.85
2018-09-27T20:18:12.614Z,96344.13
2018-09-27T20:20:42.150Z,96337.11
2018-09-27T20:23:11.754Z,96334.41
2018-09-27T20:25:41.180Z,96337.08
2018-09-27T20:28:11.185Z,96337.34
2018-09-27T20:30:41.049Z,96337.09
2018-09-27T20:33:10.962Z,96329.80
2018-09-27T20:35:40.788Z,96329.81
2018-09-27T20:38:10.412Z,96325.22
2018-09-27T20:40:40.343Z,96333.01
2018-09-27T20:43:09.813Z,96328.67
2018-09-27T20:45:39.497Z,96328.93
2018-09-27T20:48:09.297Z,96330.53
2018-09-27T20:50:38.730Z,96331.00
2018-09-27T20:53:08.226Z,96327.83
2018-09-27T20:55:37.857Z,96317.25
2018-09-27T20:58:07.510Z,96321.05
2018-09-27T21:00:37.052Z,96316.98
2018-09-27T21:03:06.445Z,96315.36
2018-09-27T21:05:36.001Z,96309.67
2018-09-27T21:08:05.471Z,96302.14
2018-09-27T21:10:34.899Z,96305.05
2018-09-27T21:13:04.308Z,96299.67
2018-09-27T21:15:33.646Z,96300.73
2018-09-27T21:18:02.979Z,96301.78
2018-09-27T21:20:32.375Z,96297.40
2018-09-27T21:23:01.704Z,96299.78
2018-09-27T21:25:31.228Z,96299.75
2018-09-27T21:28:00.647Z,96306.42
2018-09-27T21:30:29.919Z,96303.20
2018-09-27T21:32:59.351Z,96300.76
2018-09-27T21:35:28.725Z,96296.70
2018-09-27T21:37:58.078Z,96303.40
2018-09-27T21:40:27.465Z,96304.66
2018-09-27T21:42:56.797Z,96298.50
2018-09-27T21:45:26.224Z,96301.30
2018-09-27T21:47:55.660Z,96295.64
2018-09-27T21:50:25.200Z,96295.91
2018-09-27T21:52:54.487Z,96296.74
2018-09-27T21:55:23.981Z,96297.84
2018-09-27T21:57:53.444Z,96294.58
2018-09-27T22:00:22.796Z,96305.24
2018-09-27T22:02:52.315Z,96304.67
2018-09-27T22:05:21.862Z,96302.80
2018-09-27T22:07:51.302Z,96302.78
2018-09-27T22:10:20.806Z,96302.20
2018-09-27T22:12:50.277Z,96299.53
2018-09-27T22:15:19.985Z,96300.35
2018-09-27T22:17:49.583Z,96298.77
2018-09-27T22:20:19.165Z,96299.75
2018-09-27T22:22:48.777Z,96306.44
2018-09-27T22:25:18.587Z,96300.77
2018-09-27T22:27:48.311Z,96301.30
2018-09-27T22:30:17.951Z,96292.08
2018-09-27T22:32:47.772Z,96291.00
2018-09-27T22:35:17.896Z,96295.56
2018-09-27T22:37:47.752Z,96291.97
2018-09-27T22:40:17.661Z,96288.99
2018-09-27T22:42:47.627Z,96286.28
2018-09-27T22:45:17.458Z,96280.91
2018-09-27T22:47:47.373Z,96281.17
2018-09-27T22:50:17.098Z,96279.56
2018-09-27T22:52:46.497Z,96276.59
2018-09-27T22:55:15.843Z,96273.37
2018-09-27T22:57:45.282Z,96269.61
2018-09-27T23:00:14.798Z,96268.30
2018-09-27T23:02:44.291Z,96274.75
2018-09-27T23:05:13.782Z,96270.72
2018-09-27T23:07:43.216Z,96277.61
2018-09-27T23:10:12.582Z,96271.45
2018-09-27T23:12:41.919Z,96269.55
2018-09-27T23:15:11.342Z,96274.08
2018-09-27T23:17:40.744Z,96272.41
2018-09-27T23:20:11.058Z,96267.11
2018-09-27T23:22:40.513Z,96267.59
2018-09-27T23:25:10.095Z,96267.57
2018-09-27T23:27:39.536Z,96261.91
2018-09-27T23:30:08.969Z,96262.28
2018-09-27T23:32:38.305Z,96260.07
2018-09-27T23:35:07.839Z,96258.20
2018-09-27T23:37:37.255Z,96256.89
2018-09-27T23:40:06.722Z,96252.83
2018-09-27T23:42:36.222Z,96256.83
2018-09-27T23:45:05.624Z,96253.85
2018-09-27T23:47:34.971Z,96257.94
2018-09-27T23:50:04.329Z,96254.12
2018-09-27T23:52:33.684Z,96251.66
2018-09-27T23:55:02.999Z,96250.55
2018-09-27T23:57:32.408Z,96253.99
